createdAt,value
2019-02-14T00:00:06.708Z,2.93
2019-02-14T00:02:36.178Z,2.90
2019-02-14T00:05:05.743Z,2.85
2019-02-14T00:07:35.084Z,2.74
2019-02-14T00:10:04.604Z,2.71
2019-02-14T00:12:34.033Z,2.64
2019-02-14T00:15:03.499Z,2.48
2019-02-14T00:17:32.758Z,2.31
2019-02-14T00:20:02.097Z,2.15
2019-02-14T00:22:31.437Z,2.07
2019-02-14T00:25:00.711Z,2.03
2019-02-14T00:27:30.124Z,2.02
2019-02-14T00:29:59.463Z,1.97
2019-02-14T00:32:28.798Z,1.93
2019-02-14T00:34:58.230Z,1.96
2019-02-14T00:37:27.528Z,1.98
2019-02-14T00:39:56.839Z,1.96
2019-02-14T00:42:26.584Z,1.98
2019-02-14T00:44:56.045Z,2.03
2019-02-14T00:47:25.440Z,2.05
2019-02-14T00:49:54.752Z,2.02
2019-02-14T00:52:24.114Z,1.96
2019-02-14T00:54:53.479Z,1.85
2019-02-14T00:57:22.726Z,1.74
2019-02-14T00:59:52.124Z,1.62
2019-02-14T01:02:21.630Z,1.51
2019-02-14T01:04:51.089Z,1.49
2019-02-14T01:07:24.278Z,1.54
2019-02-14T01:09:53.758Z,1.66
2019-02-14T01:12:23.429Z,1.89
2019-02-14T01:14:52.960Z,2.22
2019-02-14T01:17:22.624Z,2.32
2019-02-14T01:19:51.960Z,2.33
2019-02-14T01:22:21.249Z,2.45
2019-02-14T01:24:52.360Z,2.58
2019-02-14T01:27:21.746Z,2.72
2019-02-14T01:29:51.093Z,2.76
2019-02-14T01:32:20.450Z,2.82
2019-02-14T01:34:49.749Z,2.78
2019-02-14T01:37:19.012Z,2.72
2019-02-14T01:39:48.419Z,2.68
2019-02-14T01:42:17.751Z,2.74
2019-02-14T01:44:47.269Z,2.95
2019-02-14T01:47:16.639Z,2.97
2019-02-14T01:49:46.026Z,2.98
2019-02-14T01:52:15.420Z,3.03
2019-02-14T01:54:44.744Z,2.98
2019-02-14T01:57:14.026Z,2.84
2019-02-14T01:59:45.769Z,2.69
2019-02-14T02:02:15.111Z,2.56
2019-02-14T02:04:44.450Z,2.41
2019-02-14T02:07:13.872Z,2.34
2019-02-14T02:09:43.324Z,2.32
2019-02-14T02:12:12.672Z,2.28
2019-02-14T02:14:42.063Z,2.24
2019-02-14T02:17:11.448Z,2.20
2019-02-14T02:19:40.799Z,2.12
2019-02-14T02:22:10.190Z,1.99
2019-02-14T02:24:39.572Z,1.90
2019-02-14T02:27:09.293Z,1.82
2019-02-14T02:29:38.684Z,1.67
2019-02-14T02:32:07.926Z,1.57
2019-02-14T02:34:37.335Z,1.55
2019-02-14T02:37:06.620Z,1.41
2019-02-14T02:39:36.094Z,1.21
2019-02-14T02:42:05.351Z,1.07
2019-02-14T02:44:34.656Z,0.96
2019-02-14T02:47:03.951Z,0.83
2019-02-14T02:49:33.234Z,0.73
2019-02-14T02:52:02.529Z,0.62
2019-02-14T02:54:31.823Z,0.54
2019-02-14T02:57:01.178Z,0.41
2019-02-14T02:59:31.024Z,0.30
2019-02-14T03:02:00.442Z,0.21
2019-02-14T03:04:32.851Z,0.13
2019-02-14T03:07:02.182Z,0.08
2019-02-14T03:09:31.612Z,0.00
2019-02-14T03:12:00.958Z,-0.08
2019-02-14T03:14:30.304Z,-0.08
2019-02-14T03:16:59.613Z,-0.04
2019-02-14T03:19:28.987Z,-0.06
2019-02-14T03:21:58.337Z,-0.15
2019-02-14T03:24:27.770Z,-0.28
2019-02-14T03:26:57.111Z,-0.35
2019-02-14T03:29:26.452Z,-0.29
2019-02-14T03:31:55.775Z,-0.26
2019-02-14T03:34:25.213Z,-0.31
2019-02-14T03:36:54.533Z,-0.41
2019-02-14T03:39:23.918Z,-0.53
2019-02-14T03:41:53.224Z,-0.61
2019-02-14T03:44:22.674Z,-0.61
2019-02-14T03:46:52.089Z,-0.56
2019-02-14T03:49:21.318Z,-0.53
2019-02-14T03:51:50.693Z,-0.45
2019-02-14T03:54:20.029Z,-0.39
2019-02-14T03:56:49.305Z,-0.43
2019-02-14T03:59:18.757Z,-0.44
2019-02-14T04:01:48.104Z,-0.47
2019-02-14T04:04:17.470Z,-0.52
2019-02-14T04:06:46.774Z,-0.56
2019-02-14T04:09:16.029Z,-0.55
2019-02-14T04:11:45.350Z,-0.61
2019-02-14T04:14:14.751Z,-0.70
2019-02-14T04:16:44.112Z,-0.73
2019-02-14T04:19:13.364Z,-0.74
2019-02-14T04:21:42.731Z,-0.72
2019-02-14T04:24:12.009Z,-0.71
2019-02-14T04:26:42.217Z,-0.74
2019-02-14T04:29:11.632Z,-0.77
2019-02-14T04:31:41.104Z,-0.79
2019-02-14T04:34:10.399Z,-0.76
2019-02-14T04:36:39.729Z,-0.75
2019-02-14T04:39:09.266Z,-0.74
2019-02-14T04:41:38.664Z,-0.74
2019-02-14T04:44:08.042Z,-0.75
2019-02-14T04:46:37.456Z,-0.71
2019-02-14T04:49:06.764Z,-0.60
2019-02-14T04:51:36.109Z,-0.58
2019-02-14T04:54:05.470Z,-0.62
2019-02-14T04:56:34.864Z,-0.66
2019-02-14T04:59:06.461Z,-0.76
2019-02-14T05:01:35.801Z,-0.84
2019-02-14T05:04:05.202Z,-0.88
2019-02-14T05:06:34.530Z,-0.86
2019-02-14T05:09:05.332Z,-0.85
2019-02-14T05:11:34.711Z,-0.83
2019-02-14T05:14:04.072Z,-0.84
2019-02-14T05:16:33.431Z,-0.79
2019-02-14T05:19:02.780Z,-0.77
2019-02-14T05:21:32.216Z,-0.81
2019-02-14T05:24:01.637Z,-0.87
2019-02-14T05:26:30.971Z,-0.93
2019-02-14T05:29:00.296Z,-0.97
2019-02-14T05:31:29.726Z,-1.03
2019-02-14T05:33:58.978Z,-1.00
2019-02-14T05:36:28.431Z,-1.03
2019-02-14T05:38:57.803Z,-1.08
2019-02-14T05:41:27.258Z,-1.07
2019-02-14T05:43:56.686Z,-0.97
2019-02-14T05:46:26.008Z,-0.87
2019-02-14T05:48:55.353Z,-0.74
2019-02-14T05:51:24.684Z,-0.55
2019-02-14T05:53:53.998Z,-0.43
2019-02-14T05:56:24.597Z,-0.42
2019-02-14T05:58:54.001Z,-0.44
2019-02-14T06:01:24.066Z,-0.48
2019-02-14T06:03:53.389Z,-0.50
2019-02-14T06:06:22.817Z,-0.44
2019-02-14T06:08:52.184Z,-0.28
2019-02-14T06:11:21.932Z,-0.23
2019-02-14T06:13:51.718Z,-0.28
2019-02-14T06:16:21.122Z,-0.34
2019-02-14T06:18:50.522Z,-0.33
2019-02-14T06:21:19.896Z,-0.37
2019-02-14T06:23:49.314Z,-0.46
2019-02-14T06:26:18.708Z,-0.52
2019-02-14T06:28:48.088Z,-0.56
2019-02-14T06:31:17.401Z,-0.56
2019-02-14T06:33:46.728Z,-0.56
2019-02-14T06:36:16.169Z,-0.58
2019-02-14T06:38:45.614Z,-0.62
2019-02-14T06:41:14.957Z,-0.64
2019-02-14T06:43:44.382Z,-0.62
2019-02-14T06:46:13.796Z,-0.52
2019-02-14T06:48:43.211Z,-0.37
2019-02-14T06:51:12.631Z,-0.22
2019-02-14T06:53:42.060Z,-0.13
2019-02-14T06:56:11.494Z,-0.04
2019-02-14T06:58:41.301Z,0.02
2019-02-14T07:01:10.751Z,0.06
2019-02-14T07:03:41.214Z,0.08
2019-02-14T07:06:11.774Z,0.09
2019-02-14T07:08:41.663Z,0.06
2019-02-14T07:11:11.169Z,0.02
2019-02-14T07:13:40.650Z,-0.01
2019-02-14T07:16:10.104Z,0.01
2019-02-14T07:18:40.274Z,0.07
2019-02-14T07:21:09.677Z,0.18
2019-02-14T07:23:40.294Z,0.35
2019-02-14T07:26:10.070Z,0.55
2019-02-14T07:28:41.742Z,0.73
2019-02-14T07:31:11.231Z,0.89
2019-02-14T07:33:40.756Z,1.04
2019-02-14T07:36:10.340Z,1.17
2019-02-14T07:38:39.803Z,1.30
2019-02-14T07:41:09.209Z,1.41
2019-02-14T07:43:38.685Z,1.52
2019-02-14T07:46:08.108Z,1.69
2019-02-14T07:48:37.822Z,1.87
2019-02-14T07:51:07.339Z,2.05
2019-02-14T07:53:36.927Z,2.20
2019-02-14T07:56:06.601Z,2.34
2019-02-14T07:58:36.117Z,2.42
2019-02-14T08:01:06.302Z,2.49
2019-02-14T08:03:35.791Z,2.52
2019-02-14T08:06:09.705Z,2.62
2019-02-14T08:08:46.871Z,2.75
2019-02-14T08:11:16.247Z,2.90
2019-02-14T08:13:47.468Z,3.08
2019-02-14T08:16:34.550Z,3.31
2019-02-14T08:19:03.942Z,3.46
2019-02-14T08:24:55.478Z,3.41
2019-02-14T08:27:25.531Z,3.32
2019-02-14T08:30:00.313Z,3.31
2019-02-14T08:32:37.754Z,3.28
2019-02-14T08:35:07.349Z,3.26
2019-02-14T08:37:45.029Z,3.27
2019-02-14T08:40:10.220Z,3.32
2019-02-14T08:42:58.872Z,3.38
2019-02-14T08:45:29.282Z,3.48
2019-02-14T08:47:58.652Z,3.67
2019-02-14T08:50:29.628Z,3.84
2019-02-14T08:53:01.270Z,3.97
2019-02-14T08:55:30.604Z,4.01
2019-02-14T08:58:04.353Z,4.05
2019-02-14T09:00:52.738Z,4.15
2019-02-14T09:03:22.099Z,4.19
2019-02-14T09:05:51.543Z,4.24
2019-02-14T09:08:20.895Z,4.25
2019-02-14T09:10:50.221Z,4.25
2019-02-14T09:13:38.654Z,4.22
2019-02-14T09:16:10.841Z,4.15
2019-02-14T09:18:59.246Z,4.04
2019-02-14T09:21:30.120Z,3.95
2019-02-14T09:24:02.619Z,3.86
2019-02-14T09:26:33.540Z,3.88
2019-02-14T09:29:15.239Z,3.95
2019-02-14T09:31:44.567Z,4.04
2019-02-14T09:34:13.926Z,4.13
2019-02-14T09:36:44.528Z,4.27
2019-02-14T09:39:30.141Z,4.35
2019-02-14T09:42:07.633Z,4.43
2019-02-14T09:44:38.013Z,4.50
2019-02-14T09:47:10.459Z,4.71
2019-02-14T09:50:48.196Z,4.83
2019-02-14T09:54:09.631Z,4.95
2019-02-14T09:56:40.562Z,5.12
2019-02-14T09:59:09.851Z,5.26
2019-02-14T10:01:39.129Z,5.37
2019-02-14T10:04:27.485Z,5.56
2019-02-14T10:06:56.760Z,5.81
2019-02-14T10:09:26.020Z,6.07
2019-02-14T10:11:55.291Z,6.11
2019-02-14T10:14:30.646Z,6.34
2019-02-14T10:16:59.920Z,6.56
2019-02-14T10:19:29.207Z,6.81
2019-02-14T10:21:58.420Z,6.99
2019-02-14T10:24:28.874Z,7.19
2019-02-14T10:26:58.164Z,7.26
2019-02-14T10:29:27.391Z,7.27
2019-02-14T10:32:15.673Z,7.23
2019-02-14T10:34:45.942Z,7.14
2019-02-14T10:37:15.165Z,6.95
2019-02-14T10:39:44.406Z,6.76
2019-02-14T10:42:13.769Z,6.59
2019-02-14T10:44:43.177Z,6.46
2019-02-14T10:47:12.382Z,6.38
2019-02-14T10:49:42.189Z,6.31
2019-02-14T10:52:12.142Z,6.26
2019-02-14T10:54:41.529Z,6.31
2019-02-14T10:57:29.960Z,6.52
2019-02-14T10:59:59.365Z,6.73
2019-02-14T11:02:28.564Z,6.74
2019-02-14T11:04:59.738Z,6.72
2019-02-14T11:07:29.005Z,6.71
2019-02-14T11:09:59.704Z,6.64
2019-02-14T11:12:29.047Z,6.64
2019-02-14T11:14:58.593Z,6.65
2019-02-14T11:17:48.923Z,6.71
2019-02-14T11:20:19.037Z,6.81
2019-02-14T11:22:49.193Z,7.02
2019-02-14T11:25:21.857Z,7.28
2019-02-14T11:27:52.977Z,7.57
2019-02-14T11:30:24.231Z,7.81
2019-02-14T11:32:54.375Z,7.92
2019-02-14T11:35:42.822Z,8.15
2019-02-14T11:38:12.047Z,8.27
2019-02-14T11:40:41.307Z,8.41
2019-02-14T11:43:10.700Z,8.55
2019-02-14T11:45:41.460Z,8.59
2019-02-14T11:48:14.641Z,8.67
2019-02-14T11:50:44.234Z,8.85
2019-02-14T11:53:14.143Z,9.06
2019-02-14T11:55:43.714Z,9.22
2019-02-14T11:58:13.010Z,9.40
2019-02-14T12:00:42.207Z,9.58
2019-02-14T12:03:34.952Z,9.72
2019-02-14T12:06:05.094Z,9.75
2019-02-14T12:08:35.207Z,9.80
2019-02-14T12:11:05.630Z,9.91
2019-02-14T12:13:35.451Z,10.05
2019-02-14T12:16:05.273Z,10.23
2019-02-14T12:18:34.573Z,10.35
2019-02-14T12:21:03.834Z,10.39
2019-02-14T12:23:33.094Z,10.39
2019-02-14T12:26:02.438Z,10.40
2019-02-14T12:28:31.709Z,10.36
2019-02-14T12:31:00.937Z,10.54
2019-02-14T12:33:30.209Z,10.63
2019-02-14T12:35:59.644Z,10.71
2019-02-14T12:38:28.985Z,10.76
2019-02-14T12:41:00.541Z,10.76
2019-02-14T12:43:30.892Z,10.90
2019-02-14T12:46:02.312Z,10.95
2019-02-14T12:48:50.632Z,11.00
2019-02-14T12:51:19.931Z,11.00
2019-02-14T12:53:49.246Z,11.06
2019-02-14T12:56:19.608Z,11.20
2019-02-14T12:58:48.895Z,11.24
2019-02-14T13:01:18.446Z,11.27
2019-02-14T13:03:47.816Z,11.28
2019-02-14T13:06:18.066Z,11.35
2019-02-14T13:08:47.529Z,11.41
2019-02-14T13:11:17.071Z,11.52
2019-02-14T13:13:49.981Z,11.69
2019-02-14T13:16:17.670Z,11.72
2019-02-14T13:19:41.176Z,11.78
2019-02-14T13:22:11.109Z,11.89
2019-02-14T13:24:41.748Z,11.93
2019-02-14T13:27:15.089Z,11.91
2019-02-14T13:30:02.935Z,11.99
2019-02-14T13:32:32.254Z,12.04
2019-02-14T13:35:01.641Z,12.15
2019-02-14T13:37:32.382Z,12.13
2019-02-14T13:40:02.763Z,12.19
2019-02-14T13:42:32.400Z,12.20
2019-02-14T13:45:02.038Z,12.28
2019-02-14T13:47:34.211Z,12.45
2019-02-14T13:50:03.522Z,12.47
2019-02-14T13:52:33.752Z,12.48
2019-02-14T13:55:03.916Z,12.53
2019-02-14T13:57:35.999Z,12.71
2019-02-14T14:00:08.228Z,12.92
2019-02-14T14:02:44.227Z,13.06
2019-02-14T14:05:15.374Z,13.29
2019-02-14T14:07:45.669Z,14.60
2019-02-14T14:10:15.075Z,16.91
2019-02-14T14:12:44.951Z,19.00
2019-02-14T14:15:14.877Z,20.53
2019-02-14T14:17:44.329Z,20.77
2019-02-14T14:20:13.692Z,21.42
2019-02-14T14:22:44.428Z,21.89
2019-02-14T14:25:13.880Z,22.53
2019-02-14T14:27:44.274Z,22.89
2019-02-14T14:30:13.638Z,22.78
2019-02-14T14:32:43.213Z,23.63
2019-02-14T14:35:14.086Z,24.38
2019-02-14T14:37:43.677Z,24.60
2019-02-14T14:40:13.010Z,25.16
2019-02-14T14:43:07.582Z,25.37
2019-02-14T14:45:52.186Z,24.89
2019-02-14T14:48:22.869Z,25.17
2019-02-14T14:50:52.497Z,25.09
2019-02-14T14:53:22.071Z,24.87
2019-02-14T14:55:51.759Z,25.12
2019-02-14T14:58:23.116Z,25.16
2019-02-14T15:00:52.902Z,25.39
2019-02-14T15:03:23.381Z,25.35
2019-02-14T15:05:53.722Z,25.55
2019-02-14T15:08:23.062Z,25.75
2019-02-14T15:10:52.365Z,25.91
2019-02-14T15:13:22.304Z,25.75
2019-02-14T15:15:51.902Z,25.69
2019-02-14T15:18:21.245Z,25.56
2019-02-14T15:20:50.702Z,25.42
2019-02-14T15:23:20.423Z,24.90
2019-02-14T15:25:49.795Z,24.39
2019-02-14T15:28:19.086Z,23.96
2019-02-14T15:30:48.408Z,22.89
2019-02-14T15:33:18.106Z,21.42
2019-02-14T15:35:47.475Z,19.81
2019-02-14T15:38:17.240Z,18.30
2019-02-14T15:41:05.650Z,17.32
2019-02-14T15:43:35.055Z,16.78
2019-02-14T15:46:04.476Z,16.39
2019-02-14T15:48:34.076Z,16.16
2019-02-14T15:51:03.537Z,16.00
2019-02-14T15:53:32.859Z,15.78
2019-02-14T15:56:03.409Z,15.76
2019-02-14T15:58:34.086Z,15.89
2019-02-14T16:01:04.680Z,15.73
2019-02-14T16:03:34.061Z,15.22
2019-02-14T16:06:04.508Z,14.57
2019-02-14T16:08:34.572Z,13.80
2019-02-14T16:11:22.998Z,13.05
2019-02-14T16:14:12.189Z,12.34
2019-02-14T16:16:43.328Z,11.62
2019-02-14T16:19:13.443Z,10.91
2019-02-14T16:21:42.886Z,10.17
2019-02-14T16:24:14.252Z,9.51
2019-02-14T16:26:43.450Z,8.97
2019-02-14T16:29:13.505Z,8.56
2019-02-14T16:31:42.930Z,8.19
2019-02-14T16:34:12.463Z,7.80
2019-02-14T16:36:42.362Z,7.41
2019-02-14T16:39:11.649Z,7.02
2019-02-14T16:41:41.097Z,6.66
2019-02-14T16:44:10.555Z,6.28
2019-02-14T16:46:40.024Z,5.96
2019-02-14T16:49:09.467Z,5.70
2019-02-14T16:51:38.969Z,5.47
2019-02-14T16:54:08.383Z,5.28
2019-02-14T16:56:37.848Z,5.16
2019-02-14T16:59:07.259Z,4.97
2019-02-14T17:01:36.938Z,4.83
2019-02-14T17:04:06.429Z,4.69
2019-02-14T17:06:35.797Z,4.48
2019-02-14T17:09:06.429Z,4.33
2019-02-14T17:11:36.091Z,4.18
2019-02-14T17:14:05.644Z,4.03
2019-02-14T17:16:36.178Z,3.90
2019-02-14T17:19:05.641Z,3.98
2019-02-14T17:21:35.200Z,3.98
2019-02-14T17:24:04.982Z,3.82
2019-02-14T17:26:34.845Z,3.74
2019-02-14T17:29:04.342Z,3.72
2019-02-14T17:31:34.296Z,3.69
2019-02-14T17:34:03.871Z,3.59
2019-02-14T17:36:33.643Z,3.51
2019-02-14T17:39:03.223Z,3.41
2019-02-14T17:41:33.020Z,3.28
2019-02-14T17:44:02.503Z,3.11
2019-02-14T17:46:32.130Z,2.94
2019-02-14T17:49:01.638Z,2.87
2019-02-14T17:51:31.311Z,2.84
2019-02-14T17:54:01.793Z,2.82
2019-02-14T17:56:31.511Z,2.75
2019-02-14T17:59:02.152Z,2.62
2019-02-14T18:01:31.869Z,2.52
2019-02-14T18:04:01.533Z,2.52
2019-02-14T18:06:31.233Z,2.54
2019-02-14T18:09:00.957Z,2.54
2019-02-14T18:11:30.596Z,2.53
2019-02-14T18:14:00.240Z,2.50
2019-02-14T18:16:30.453Z,2.41
2019-02-14T18:19:00.153Z,2.39
2019-02-14T18:21:29.864Z,2.45
2019-02-14T18:23:59.772Z,2.46
2019-02-14T18:26:29.573Z,2.41
2019-02-14T18:28:59.231Z,2.33
2019-02-14T18:31:28.893Z,2.28
2019-02-14T18:33:58.630Z,2.24
2019-02-14T18:36:28.802Z,2.26
2019-02-14T18:38:58.603Z,2.27
2019-02-14T18:41:28.164Z,2.19
2019-02-14T18:43:57.998Z,2.14
2019-02-14T18:46:28.758Z,2.06
2019-02-14T18:48:58.542Z,1.99
2019-02-14T18:51:28.300Z,1.92
2019-02-14T18:53:57.946Z,1.85
2019-02-14T18:56:27.692Z,1.81
2019-02-14T18:58:57.580Z,1.76
2019-02-14T19:01:27.258Z,1.76
2019-02-14T19:03:56.947Z,1.82
2019-02-14T19:06:26.682Z,1.89
2019-02-14T19:08:57.669Z,1.89
2019-02-14T19:11:27.389Z,1.82
2019-02-14T19:13:57.159Z,1.75
2019-02-14T19:16:26.879Z,1.73
2019-02-14T19:18:58.657Z,1.71
2019-02-14T19:21:27.979Z,1.69
2019-02-14T19:23:57.763Z,1.66
2019-02-14T19:26:27.792Z,1.62
2019-02-14T19:28:57.571Z,1.63
2019-02-14T19:31:27.200Z,1.67
2019-02-14T19:33:56.783Z,1.76
2019-02-14T19:36:26.517Z,1.85
2019-02-14T19:38:56.417Z,1.89
2019-02-14T19:41:26.175Z,1.86
2019-02-14T19:43:56.725Z,1.98
2019-02-14T19:46:26.749Z,2.12
2019-02-14T19:48:56.476Z,2.13
2019-02-14T19:51:26.162Z,2.10
2019-02-14T19:53:55.830Z,2.08
2019-02-14T19:56:25.526Z,2.04
2019-02-14T19:58:55.290Z,1.96
2019-02-14T20:01:25.091Z,1.86
2019-02-14T20:03:54.962Z,1.81
2019-02-14T20:06:24.695Z,1.80
2019-02-14T20:08:54.309Z,1.78
2019-02-14T20:11:24.110Z,1.75
2019-02-14T20:13:53.952Z,1.69
2019-02-14T20:16:23.743Z,1.67
2019-02-14T20:18:53.356Z,1.66
2019-02-14T20:21:23.045Z,1.60
2019-02-14T20:23:52.798Z,1.56
2019-02-14T20:26:22.463Z,1.52
2019-02-14T20:28:52.305Z,1.58
2019-02-14T20:31:22.035Z,1.52
2019-02-14T20:33:51.616Z,1.49
2019-02-14T20:36:21.308Z,1.45
2019-02-14T20:38:50.860Z,1.39
2019-02-14T20:41:20.467Z,1.38
2019-02-14T20:43:50.346Z,1.37
2019-02-14T20:46:19.901Z,1.27
2019-02-14T20:48:49.621Z,1.21
2019-02-14T20:51:19.724Z,1.15
2019-02-14T20:53:49.426Z,1.19
2019-02-14T20:56:19.146Z,1.27
2019-02-14T20:58:48.819Z,1.24
2019-02-14T21:01:18.464Z,1.16
2019-02-14T21:03:48.159Z,1.15
2019-02-14T21:06:19.075Z,1.15
2019-02-14T21:08:48.736Z,1.12
2019-02-14T21:11:18.303Z,1.05
2019-02-14T21:13:48.058Z,1.01
2019-02-14T21:16:17.584Z,0.98
2019-02-14T21:18:47.296Z,0.96
2019-02-14T21:21:16.930Z,0.91
2019-02-14T21:23:46.564Z,0.86
2019-02-14T21:26:16.610Z,0.78
2019-02-14T21:28:46.579Z,0.71
2019-02-14T21:31:16.549Z,0.78
2019-02-14T21:33:46.225Z,0.85
2019-02-14T21:36:15.754Z,0.86
2019-02-14T21:38:45.709Z,0.84
2019-02-14T21:41:15.235Z,0.81
2019-02-14T21:43:44.990Z,0.88
2019-02-14T21:46:14.684Z,0.91
2019-02-14T21:48:44.052Z,0.85
2019-02-14T21:51:13.543Z,0.80
2019-02-14T21:53:43.552Z,0.77
2019-02-14T21:56:13.187Z,0.73
2019-02-14T21:58:42.677Z,0.76
2019-02-14T22:01:13.215Z,0.75
2019-02-14T22:03:42.514Z,0.72
2019-02-14T22:06:11.929Z,0.66
2019-02-14T22:08:42.428Z,0.59
2019-02-14T22:11:11.841Z,0.51
2019-02-14T22:13:41.189Z,0.42
2019-02-14T22:16:10.536Z,0.42
2019-02-14T22:18:40.006Z,0.51
2019-02-14T22:21:09.546Z,0.52
2019-02-14T22:23:38.867Z,0.45
2019-02-14T22:26:08.622Z,0.32
2019-02-14T22:28:38.071Z,0.22
2019-02-14T22:31:07.446Z,0.18
2019-02-14T22:33:36.869Z,0.13
2019-02-14T22:36:06.322Z,0.06
2019-02-14T22:38:35.713Z,0.00
2019-02-14T22:41:05.085Z,-0.10
2019-02-14T22:43:34.427Z,-0.09
2019-02-14T22:46:03.881Z,-0.16
2019-02-14T22:48:33.372Z,-0.09
2019-02-14T22:51:02.923Z,-0.05
2019-02-14T22:53:32.404Z,-0.14
2019-02-14T22:56:01.780Z,-0.19
2019-02-14T22:58:31.151Z,-0.21
2019-02-14T23:01:01.332Z,-0.23
2019-02-14T23:03:30.726Z,-0.26
2019-02-14T23:06:00.136Z,-0.32
2019-02-14T23:08:29.559Z,-0.26
2019-02-14T23:10:58.841Z,-0.23
2019-02-14T23:13:28.226Z,-0.29
2019-02-14T23:15:57.746Z,-0.36
2019-02-14T23:18:27.323Z,-0.37
2019-02-14T23:20:56.946Z,-0.38
2019-02-14T23:23:26.302Z,-0.44
2019-02-14T23:25:55.741Z,-0.50
2019-02-14T23:28:25.442Z,-0.57
2019-02-14T23:30:54.817Z,-0.66
2019-02-14T23:33:24.116Z,-0.73
2019-02-14T23:35:54.050Z,-0.81
2019-02-14T23:38:23.468Z,-0.79
2019-02-14T23:40:52.801Z,-0.73
2019-02-14T23:43:22.201Z,-0.71
2019-02-14T23:45:51.639Z,-0.65
2019-02-14T23:48:20.908Z,-0.71
2019-02-14T23:50:50.542Z,-0.80
2019-02-14T23:53:20.004Z,-0.83
2019-02-14T23:55:49.291Z,-0.79
2019-02-14T23:58:18.716Z,-0.77
